sensor_id;sensor_type;location;lat;lon;timestamp;pressure;altitude;pressure_sealevel;temperature;humidity
48792;BME280;34587;48.816;9.420;2023-02-03T00:00:10;100066.28;;;5.59;80.05
48792;BME280;34587;48.816;9.420;2023-02-03T00:02:36;100052.81;;;5.69;79.53
48792;BME280;34587;48.816;9.420;2023-02-03T00:05:01;100052.13;;;5.76;79.44
48792;BME280;34587;48.816;9.420;2023-02-03T00:07:27;100041.13;;;5.83;79.14
48792;BME280;34587;48.816;9.420;2023-02-03T00:09:54;100042.91;;;5.86;78.94
48792;BME280;34587;48.816;9.420;2023-02-03T00:12:20;100033.34;;;5.80;79.04
48792;BME280;34587;48.816;9.420;2023-02-03T00:14:45;100038.53;;;5.83;79.10
48792;BME280;34587;48.816;9.420;2023-02-03T00:17:10;100048.69;;;5.77;79.33
48792;BME280;34587;48.816;9.420;2023-02-03T00:19:36;100054.84;;;5.84;78.36
48792;BME280;34587;48.816;9.420;2023-02-03T00:22:01;100050.44;;;5.78;78.74
48792;BME280;34587;48.816;9.420;2023-02-03T00:24:26;100063.28;;;5.77;79.29
48792;BME280;34587;48.816;9.420;2023-02-03T00:26:52;100055.66;;;5.81;78.81
48792;BME280;34587;48.816;9.420;2023-02-03T00:29:17;100053.84;;;5.77;79.49
48792;BME280;34587;48.816;9.420;2023-02-03T00:31:45;100057.31;;;5.79;79.16
48792;BME280;34587;48.816;9.420;2023-02-03T00:34:10;100051.84;;;5.64;79.93
48792;BME280;34587;48.816;9.420;2023-02-03T00:36:36;100053.84;;;5.77;79.23
48792;BME280;34587;48.816;9.420;2023-02-03T00:39:01;100064.91;;;5.73;79.38
48792;BME280;34587;48.816;9.420;2023-02-03T00:41:28;100051.78;;;5.61;80.09
48792;BME280;34587;48.816;9.420;2023-02-03T00:43:54;100061.38;;;5.70;79.98
48792;BME280;34587;48.816;9.420;2023-02-03T00:46:20;100066.50;;;5.68;79.30
48792;BME280;34587;48.816;9.420;2023-02-03T00:48:45;100072.47;;;5.67;79.53
48792;BME280;34587;48.816;9.420;2023-02-03T00:51:10;100079.22;;;5.62;80.16
48792;BME280;34587;48.816;9.420;2023-02-03T00:53:35;100079.34;;;5.68;79.75
48792;BME280;34587;48.816;9.420;2023-02-03T00:56:01;100079.28;;;5.65;79.42
48792;BME280;34587;48.816;9.420;2023-02-03T00:58:26;100085.22;;;5.62;79.91
48792;BME280;34587;48.816;9.420;2023-02-03T05:16:52;100003.38;;;4.71;94.31
48792;BME280;34587;48.816;9.420;2023-02-03T05:19:17;100010.50;;;4.82;93.60
48792;BME280;34587;48.816;9.420;2023-02-03T05:21:43;100002.69;;;4.78;93.86
48792;BME280;34587;48.816;9.420;2023-02-03T05:24:08;100001.81;;;4.77;94.32
48792;BME280;34587;48.816;9.420;2023-02-03T05:26:34;99994.94;;;4.76;94.48
48792;BME280;34587;48.816;9.420;2023-02-03T05:29:00;99993.97;;;4.71;94.79
48792;BME280;34587;48.816;9.420;2023-02-03T05:31:25;99987.84;;;4.66;95.73
48792;BME280;34587;48.816;9.420;2023-02-03T05:33:50;99998.50;;;4.81;94.71
48792;BME280;34587;48.816;9.420;2023-02-03T05:36:16;100000.19;;;4.79;95.18
48792;BME280;34587;48.816;9.420;2023-02-03T05:38:41;100003.53;;;4.78;95.32
48792;BME280;34587;48.816;9.420;2023-02-03T05:41:08;100012.09;;;4.77;95.73
48792;BME280;34587;48.816;9.420;2023-02-03T05:43:53;100018.06;;;4.76;96.26
48792;BME280;34587;48.816;9.420;2023-02-03T05:46:18;100015.41;;;4.73;96.23
48792;BME280;34587;48.816;9.420;2023-02-03T05:48:44;100009.50;;;4.76;96.36
48792;BME280;34587;48.816;9.420;2023-02-03T05:51:09;100013.69;;;4.72;96.54
48792;BME280;34587;48.816;9.420;2023-02-03T05:53:35;100010.97;;;4.66;96.72
48792;BME280;34587;48.816;9.420;2023-02-03T05:56:00;100005.22;;;4.76;96.26
48792;BME280;34587;48.816;9.420;2023-02-03T05:58:25;99986.41;;;4.77;96.18
48792;BME280;34587;48.816;9.420;2023-02-03T06:00:51;99977.97;;;4.81;96.27
48792;BME280;34587;48.816;9.420;2023-02-03T06:03:16;99971.88;;;4.78;95.06
48792;BME280;34587;48.816;9.420;2023-02-03T06:05:42;99979.06;;;4.93;95.45
48792;BME280;34587;48.816;9.420;2023-02-03T06:08:08;99991.88;;;4.91;94.91
48792;BME280;34587;48.816;9.420;2023-02-03T06:10:33;99996.06;;;4.87;94.19
48792;BME280;34587;48.816;9.420;2023-02-03T06:12:59;99984.06;;;4.86;94.90
48792;BME280;34587;48.816;9.420;2023-02-03T06:15:24;99985.69;;;4.83;95.15
48792;BME280;34587;48.816;9.420;2023-02-03T06:17:49;99980.56;;;4.83;95.21
48792;BME280;34587;48.816;9.420;2023-02-03T06:20:17;99982.25;;;4.82;95.22
48792;BME280;34587;48.816;9.420;2023-02-03T06:22:43;99976.22;;;4.80;94.98
48792;BME280;34587;48.816;9.420;2023-02-03T06:25:09;99990.19;;;4.92;93.58
48792;BME280;34587;48.816;9.420;2023-02-03T06:27:34;99985.91;;;4.92;93.45
48792;BME280;34587;48.816;9.420;2023-02-03T06:30:00;99997.13;;;4.96;93.97
48792;BME280;34587;48.816;9.420;2023-02-03T06:32:25;99986.88;;;4.96;93.56
48792;BME280;34587;48.816;9.420;2023-02-03T06:34:51;99984.31;;;4.97;92.75
48792;BME280;34587;48.816;9.420;2023-02-03T06:37:16;99983.47;;;4.97;92.45
48792;BME280;34587;48.816;9.420;2023-02-03T06:39:41;99999.72;;;4.96;92.99
48792;BME280;34587;48.816;9.420;2023-02-03T06:42:06;99993.47;;;4.84;93.70
48792;BME280;34587;48.816;9.420;2023-02-03T06:44:32;99974.88;;;4.95;93.44
48792;BME280;34587;48.816;9.420;2023-02-03T06:46:57;99973.88;;;4.89;93.59
48792;BME280;34587;48.816;9.420;2023-02-03T06:49:23;99961.78;;;4.84;94.36
48792;BME280;34587;48.816;9.420;2023-02-03T06:51:49;99956.69;;;4.87;94.99
48792;BME280;34587;48.816;9.420;2023-02-03T06:54:14;99951.66;;;4.90;95.01
48792;BME280;34587;48.816;9.420;2023-02-03T06:56:39;99963.53;;;4.86;93.03
48792;BME280;34587;48.816;9.420;2023-02-03T06:59:05;99955.06;;;4.90;93.63
48792;BME280;34587;48.816;9.420;2023-02-03T07:01:31;99938.69;;;4.85;93.81
48792;BME280;34587;48.816;9.420;2023-02-03T07:03:57;99942.22;;;4.90;93.49
48792;BME280;34587;48.816;9.420;2023-02-03T07:06:26;99951.66;;;4.92;91.41
48792;BME280;34587;48.816;9.420;2023-02-03T07:08:57;99956.06;;;4.96;91.18
48792;BME280;34587;48.816;9.420;2023-02-03T07:11:22;99948.25;;;4.93;91.23
48792;BME280;34587;48.816;9.420;2023-02-03T07:13:48;99951.63;;;4.88;90.96
48792;BME280;34587;48.816;9.420;2023-02-03T07:16:14;99945.69;;;4.93;91.12
48792;BME280;34587;48.816;9.420;2023-02-03T07:18:39;99948.38;;;4.97;90.10
48792;BME280;34587;48.816;9.420;2023-02-03T07:21:05;99949.19;;;4.95;90.31
48792;BME280;34587;48.816;9.420;2023-02-03T07:23:31;99944.09;;;4.98;89.86
48792;BME280;34587;48.816;9.420;2023-02-03T07:26:00;99943.31;;;5.00;89.99
48792;BME280;34587;48.816;9.420;2023-02-03T07:28:27;99939.06;;;5.02;88.80
48792;BME280;34587;48.816;9.420;2023-02-03T07:30:53;99943.31;;;5.00;90.11
48792;BME280;34587;48.816;9.420;2023-02-03T07:33:18;99944.25;;;5.04;90.11
48792;BME280;34587;48.816;9.420;2023-02-03T07:35:50;99956.41;;;5.11;90.04
48792;BME280;34587;48.816;9.420;2023-02-03T07:38:15;99953.78;;;5.08;89.65
48792;BME280;34587;48.816;9.420;2023-02-03T07:40:41;99952.88;;;5.07;88.99
48792;BME280;34587;48.816;9.420;2023-02-03T07:43:06;99963.13;;;5.06;89.37
48792;BME280;34587;48.816;9.420;2023-02-03T07:45:32;99972.56;;;5.07;88.33
48792;BME280;34587;48.816;9.420;2023-02-03T07:47:57;99980.13;;;5.01;88.57
48792;BME280;34587;48.816;9.420;2023-02-03T07:50:22;99983.47;;;4.97;89.54
48792;BME280;34587;48.816;9.420;2023-02-03T07:52:49;99984.31;;;4.97;89.30
48792;BME280;34587;48.816;9.420;2023-02-03T07:55:14;99988.53;;;4.94;89.26
48792;BME280;34587;48.816;9.420;2023-02-03T07:57:40;99997.06;;;4.93;89.69
48792;BME280;34587;48.816;9.420;2023-02-03T08:00:09;100015.97;;;4.95;90.46
48792;BME280;34587;48.816;9.420;2023-02-03T08:02:34;100012.41;;;4.89;89.99
48792;BME280;34587;48.816;9.420;2023-02-03T08:04:59;100012.63;;;4.99;90.58
48792;BME280;34587;48.816;9.420;2023-02-03T08:07:25;100028.44;;;4.81;91.61
48792;BME280;34587;48.816;9.420;2023-02-03T08:09:50;100021.09;;;4.95;91.52
48792;BME280;34587;48.816;9.420;2023-02-03T08:12:15;100033.09;;;4.96;92.00
48792;BME280;34587;48.816;9.420;2023-02-03T08:14:40;100029.69;;;4.97;91.23
48792;BME280;34587;48.816;9.420;2023-02-03T08:17:06;100027.06;;;4.94;90.97
48792;BME280;34587;48.816;9.420;2023-02-03T08:19:31;100015.22;;;4.99;91.54
48792;BME280;34587;48.816;9.420;2023-02-03T08:21:56;100009.00;;;4.90;92.95
48792;BME280;34587;48.816;9.420;2023-02-03T08:24:23;100023.72;;;4.98;93.57
48792;BME280;34587;48.816;9.420;2023-02-03T08:26:48;100013.28;;;4.90;93.22
48792;BME280;34587;48.816;9.420;2023-02-03T08:29:14;100015.97;;;4.95;93.23
48792;BME280;34587;48.816;9.420;2023-02-03T08:31:40;100014.38;;;5.00;92.93
48792;BME280;34587;48.816;9.420;2023-02-03T08:34:06;100008.84;;;4.84;94.19
48792;BME280;34587;48.816;9.420;2023-02-03T08:36:31;100003.78;;;4.87;94.29
48792;BME280;34587;48.816;9.420;2023-02-03T08:38:57;100003.94;;;4.94;94.92
48792;BME280;34587;48.816;9.420;2023-02-03T08:41:22;100011.81;;;5.01;94.20
48792;BME280;34587;48.816;9.420;2023-02-03T08:43:47;100019.56;;;5.03;93.09
48792;BME280;34587;48.816;9.420;2023-02-03T08:46:13;100030.84;;;5.08;93.38
48792;BME280;34587;48.816;9.420;2023-02-03T08:48:38;100050.56;;;5.09;93.44
48792;BME280;34587;48.816;9.420;2023-02-03T08:51:12;100038.56;;;5.08;92.72
48792;BME280;34587;48.816;9.420;2023-02-03T08:53:38;100019.03;;;5.16;92.10
48792;BME280;34587;48.816;9.420;2023-02-03T08:56:08;100019.66;;;5.06;92.67
48792;BME280;34587;48.816;9.420;2023-02-03T08:58:34;100019.88;;;5.15;92.94
48792;BME280;34587;48.816;9.420;2023-02-03T09:01:07;100019.88;;;5.16;93.03
48792;BME280;34587;48.816;9.420;2023-02-03T09:03:32;100023.31;;;5.17;92.42
48792;BME280;34587;48.816;9.420;2023-02-03T09:05:58;100023.31;;;5.15;92.82
48792;BME280;34587;48.816;9.420;2023-02-03T09:08:24;100007.84;;;5.14;93.04
48792;BME280;34587;48.816;9.420;2023-02-03T09:10:49;100016.41;;;5.13;93.68
48792;BME280;34587;48.816;9.420;2023-02-03T09:13:14;100022.53;;;5.18;93.11
48792;BME280;34587;48.816;9.420;2023-02-03T09:15:40;100021.53;;;5.13;93.78
48792;BME280;34587;48.816;9.420;2023-02-03T09:18:05;100014.88;;;5.21;93.49
48792;BME280;34587;48.816;9.420;2023-02-03T09:20:30;100008.34;;;5.35;93.21
48792;BME280;34587;48.816;9.420;2023-02-03T09:22:57;100001.66;;;5.42;92.95
48792;BME280;34587;48.816;9.420;2023-02-03T09:25:23;99995.91;;;5.54;92.04
48792;BME280;34587;48.816;9.420;2023-02-03T09:27:48;99995.22;;;5.61;91.51
48792;BME280;34587;48.816;9.420;2023-02-03T09:30:14;99995.34;;;5.67;91.07
48792;BME280;34587;48.816;9.420;2023-02-03T09:32:39;100017.75;;;5.74;91.27
48792;BME280;34587;48.816;9.420;2023-02-03T09:35:05;100017.38;;;5.56;91.95
48792;BME280;34587;48.816;9.420;2023-02-03T09:37:30;100016.56;;;5.57;91.85
48792;BME280;34587;48.816;9.420;2023-02-03T09:39:55;100014.31;;;5.72;91.86
48792;BME280;34587;48.816;9.420;2023-02-03T09:43:10;100005.75;;;5.73;91.54
48792;BME280;34587;48.816;9.420;2023-02-03T09:45:37;100000.97;;;5.90;90.77
48792;BME280;34587;48.816;9.420;2023-02-03T09:48:19;100001.59;;;6.19;89.85
48792;BME280;34587;48.816;9.420;2023-02-03T09:50:47;99998.47;;;6.35;86.66
48792;BME280;34587;48.816;9.420;2023-02-03T09:53:34;99996.69;;;6.81;84.87
48792;BME280;34587;48.816;9.420;2023-02-03T09:56:03;99994.06;;;6.78;83.82
48792;BME280;34587;48.816;9.420;2023-02-03T09:58:32;99988.91;;;6.78;84.58
48792;BME280;34587;48.816;9.420;2023-02-03T10:01:00;99982.69;;;6.65;84.82
48792;BME280;34587;48.816;9.420;2023-02-03T10:03:40;99976.50;;;7.07;82.55
48792;BME280;34587;48.816;9.420;2023-02-03T10:11:50;99950.72;;;9.69;70.62
48792;BME280;34587;48.816;9.420;2023-02-03T10:14:38;99961.03;;;9.58;69.89
48792;BME280;34587;48.816;9.420;2023-02-03T10:22:28;99987.53;;;8.29;75.50
48792;BME280;34587;48.816;9.420;2023-02-03T10:27:38;99989.78;;;7.98;77.93
48792;BME280;34587;48.816;9.420;2023-02-03T10:30:25;99998.41;;;7.99;77.71
48792;BME280;34587;48.816;9.420;2023-02-03T10:32:55;99994.72;;;7.79;79.19
48792;BME280;34587;48.816;9.420;2023-02-03T10:35:31;100008.44;;;8.47;76.03
48792;BME280;34587;48.816;9.420;2023-02-03T10:38:00;99992.88;;;8.41;76.53
48792;BME280;34587;48.816;9.420;2023-02-03T10:40:26;99991.28;;;7.80;79.35
48792;BME280;34587;48.816;9.420;2023-02-03T10:42:53;99986.59;;;7.53;80.91
48792;BME280;34587;48.816;9.420;2023-02-03T10:45:38;99984.63;;;7.33;80.70
48792;BME280;34587;48.816;9.420;2023-02-03T10:48:05;99963.69;;;7.12;81.41
48792;BME280;34587;48.816;9.420;2023-02-03T10:50:37;99972.63;;;7.35;81.14
48792;BME280;34587;48.816;9.420;2023-02-03T10:53:22;99967.22;;;7.20;80.97
48792;BME280;34587;48.816;9.420;2023-02-03T10:55:58;99974.16;;;7.24;81.53
48792;BME280;34587;48.816;9.420;2023-02-03T10:58:26;99967.38;;;7.29;80.56
48792;BME280;34587;48.816;9.420;2023-02-03T11:01:11;99976.28;;;7.53;80.02
48792;BME280;34587;48.816;9.420;2023-02-03T11:03:40;99971.13;;;7.54;80.45
48792;BME280;34587;48.816;9.420;2023-02-03T11:06:12;99969.94;;;7.28;81.77
48792;BME280;34587;48.816;9.420;2023-02-03T11:08:44;99964.66;;;7.20;81.24
48792;BME280;34587;48.816;9.420;2023-02-03T11:13:53;99970.16;;;7.44;81.75
48792;BME280;34587;48.816;9.420;2023-02-03T11:16:18;99951.22;;;7.41;82.49
48792;BME280;34587;48.816;9.420;2023-02-03T11:21:51;99936.41;;;7.26;82.58
48792;BME280;34587;48.816;9.420;2023-02-03T11:24:27;99948.09;;;7.03;83.94
48792;BME280;34587;48.816;9.420;2023-02-03T11:27:15;99953.09;;;6.92;83.75
48792;BME280;34587;48.816;9.420;2023-02-03T11:29:46;99946.16;;;6.89;84.35
48792;BME280;34587;48.816;9.420;2023-02-03T11:32:20;99938.25;;;6.77;85.02
48792;BME280;34587;48.816;9.420;2023-02-03T11:34:55;99931.63;;;6.93;84.74
48792;BME280;34587;48.816;9.420;2023-02-03T11:37:32;99941.00;;;6.89;84.22
48792;BME280;34587;48.816;9.420;2023-02-03T11:42:37;99944.50;;;6.91;85.19
48792;BME280;34587;48.816;9.420;2023-02-03T11:45:14;99945.44;;;6.97;85.83
48792;BME280;34587;48.816;9.420;2023-02-03T11:47:46;99923.25;;;7.06;85.98
48792;BME280;34587;48.816;9.420;2023-02-03T11:50:18;99915.59;;;7.12;84.76
48792;BME280;34587;48.816;9.420;2023-02-03T11:52:56;99917.31;;;7.15;84.14
48792;BME280;34587;48.816;9.420;2023-02-03T11:58:17;99911.31;;;7.14;83.35
48792;BME280;34587;48.816;9.420;2023-02-03T12:03:56;99907.28;;;7.33;82.81
48792;BME280;34587;48.816;9.420;2023-02-03T12:09:34;99907.25;;;7.30;81.91
48792;BME280;34587;48.816;9.420;2023-02-03T12:23:08;99905.47;;;7.28;80.58
48792;BME280;34587;48.816;9.420;2023-02-03T12:28:38;99907.16;;;7.24;81.24
48792;BME280;34587;48.816;9.420;2023-02-03T12:31:14;99903.69;;;7.22;81.32
48792;BME280;34587;48.816;9.420;2023-02-03T12:33:47;99913.09;;;7.20;80.79
48792;BME280;34587;48.816;9.420;2023-02-03T12:38:52;99881.25;;;7.15;81.82
48792;BME280;34587;48.816;9.420;2023-02-03T12:41:33;99873.56;;;7.18;81.60
48792;BME280;34587;48.816;9.420;2023-02-03T12:44:25;99872.69;;;7.16;81.02
48792;BME280;34587;48.816;9.420;2023-02-03T12:46:57;99853.75;;;7.12;81.04
48792;BME280;34587;48.816;9.420;2023-02-03T12:49:44;99854.53;;;7.08;80.73
48792;BME280;34587;48.816;9.420;2023-02-03T12:52:22;99850.25;;;7.09;79.62
48792;BME280;34587;48.816;9.420;2023-02-03T12:57:43;99833.06;;;7.08;79.47
48792;BME280;34587;48.816;9.420;2023-02-03T13:03:14;99834.84;;;7.15;79.57
48792;BME280;34587;48.816;9.420;2023-02-03T13:05:49;99826.19;;;7.10;79.04
48792;BME280;34587;48.816;9.420;2023-02-03T13:08:22;99832.28;;;7.15;78.37
48792;BME280;34587;48.816;9.420;2023-02-03T13:10:58;99831.34;;;7.10;78.73
48792;BME280;34587;48.816;9.420;2023-02-03T13:13:34;99821.22;;;7.22;76.71
48792;BME280;34587;48.816;9.420;2023-02-03T13:16:05;99819.56;;;7.27;76.59
48792;BME280;34587;48.816;9.420;2023-02-03T13:18:35;99815.31;;;7.31;75.30
48792;BME280;34587;48.816;9.420;2023-02-03T13:21:01;99815.38;;;7.38;75.10
48792;BME280;34587;48.816;9.420;2023-02-03T13:23:26;99809.38;;;7.38;75.57
48792;BME280;34587;48.816;9.420;2023-02-03T13:31:40;99802.50;;;7.38;75.46
48792;BME280;34587;48.816;9.420;2023-02-03T13:42:27;99799.00;;;7.33;73.84
48792;BME280;34587;48.816;9.420;2023-02-03T13:47:48;99772.44;;;7.40;73.76
48792;BME280;34587;48.816;9.420;2023-02-03T13:50:36;99775.81;;;7.35;73.93
48792;BME280;34587;48.816;9.420;2023-02-03T13:53:03;99773.22;;;7.33;75.41
48792;BME280;34587;48.816;9.420;2023-02-03T13:55:37;99767.25;;;7.36;74.32
48792;BME280;34587;48.816;9.420;2023-02-03T13:58:06;99780.16;;;7.39;74.44
48792;BME280;34587;48.816;9.420;2023-02-03T14:03:39;99788.72;;;7.36;74.73
48792;BME280;34587;48.816;9.420;2023-02-03T14:06:02;99788.78;;;7.42;74.41
48792;BME280;34587;48.816;9.420;2023-02-03T14:19:03;99787.88;;;7.39;74.41
48792;BME280;34587;48.816;9.420;2023-02-03T14:21:39;99793.03;;;7.37;74.87
48792;BME280;34587;48.816;9.420;2023-02-03T14:24:09;99788.75;;;7.38;74.51
48792;BME280;34587;48.816;9.420;2023-02-03T14:26:38;99795.63;;;7.39;74.38
48792;BME280;34587;48.816;9.420;2023-02-03T14:29:07;99797.38;;;7.41;74.39
48792;BME280;34587;48.816;9.420;2023-02-03T14:32:00;99796.56;;;7.47;74.42
48792;BME280;34587;48.816;9.420;2023-02-03T14:34:40;99793.94;;;7.42;73.91
48792;BME280;34587;48.816;9.420;2023-02-03T14:37:16;99798.25;;;7.43;73.72
48792;BME280;34587;48.816;9.420;2023-02-03T14:42:59;99787.06;;;7.40;74.64
48792;BME280;34587;48.816;9.420;2023-02-03T14:45:37;99795.66;;;7.40;74.60
48792;BME280;34587;48.816;9.420;2023-02-03T14:48:24;99798.22;;;7.40;74.42
48792;BME280;34587;48.816;9.420;2023-02-03T14:51:09;99788.75;;;7.39;74.98
48792;BME280;34587;48.816;9.420;2023-02-03T14:56:31;99795.66;;;7.40;74.85
48792;BME280;34587;48.816;9.420;2023-02-03T14:59:23;99805.06;;;7.37;75.33
48792;BME280;34587;48.816;9.420;2023-02-03T15:06:48;99793.09;;;7.42;74.69
48792;BME280;34587;48.816;9.420;2023-02-03T15:09:32;99791.38;;;7.44;75.09
48792;BME280;34587;48.816;9.420;2023-02-03T15:12:00;99782.78;;;7.43;74.98
48792;BME280;34587;48.816;9.420;2023-02-03T15:14:27;99781.00;;;7.36;75.39
48792;BME280;34587;48.816;9.420;2023-02-03T15:17:02;99788.78;;;7.42;75.30
48792;BME280;34587;48.816;9.420;2023-02-03T15:19:39;99793.94;;;7.42;75.86
48792;BME280;34587;48.816;9.420;2023-02-03T15:22:27;99787.03;;;7.38;75.80
48792;BME280;34587;48.816;9.420;2023-02-03T15:24:59;99797.34;;;7.38;75.93
48792;BME280;34587;48.816;9.420;2023-02-03T15:27:29;99805.06;;;7.35;76.01
48792;BME280;34587;48.816;9.420;2023-02-03T15:29:56;99813.66;;;7.36;75.72
48792;BME280;34587;48.816;9.420;2023-02-03T15:32:30;99806.78;;;7.36;75.96
48792;BME280;34587;48.816;9.420;2023-02-03T15:34:58;99816.25;;;7.37;75.37
48792;BME280;34587;48.816;9.420;2023-02-03T15:40:01;99826.47;;;7.31;76.86
48792;BME280;34587;48.816;9.420;2023-02-03T15:42:33;99825.63;;;7.32;76.32
48792;BME280;34587;48.816;9.420;2023-02-03T15:47:35;99832.50;;;7.32;76.28
48792;BME280;34587;48.816;9.420;2023-02-03T15:50:24;99841.91;;;7.28;77.01
48792;BME280;34587;48.816;9.420;2023-02-03T15:52:53;99841.94;;;7.31;77.53
48792;BME280;34587;48.816;9.420;2023-02-03T15:55:28;99853.91;;;7.26;77.93
48792;BME280;34587;48.816;9.420;2023-02-03T15:57:56;99855.56;;;7.21;79.11
48792;BME280;34587;48.816;9.420;2023-02-03T16:00:35;99854.53;;;7.08;80.03
48792;BME280;34587;48.816;9.420;2023-02-03T16:03:12;99853.53;;;6.99;80.89
48792;BME280;34587;48.816;9.420;2023-02-03T16:05:39;99857.88;;;7.01;81.90
48792;BME280;34587;48.816;9.420;2023-02-03T16:08:26;99862.06;;;6.91;82.51
48792;BME280;34587;48.816;9.420;2023-02-03T16:10:55;99864.56;;;6.87;82.53
48792;BME280;34587;48.816;9.420;2023-02-03T16:13:27;99853.44;;;6.91;83.26
48792;BME280;34587;48.816;9.420;2023-02-03T16:16:04;99855.19;;;6.93;82.75
48792;BME280;34587;48.816;9.420;2023-02-03T16:18:33;99865.44;;;6.90;83.18
48792;BME280;34587;48.816;9.420;2023-02-03T16:21:03;99864.50;;;6.85;83.33
48792;BME280;34587;48.816;9.420;2023-02-03T16:23:29;99862.91;;;6.92;83.34
48792;BME280;34587;48.816;9.420;2023-02-03T16:28:30;99849.97;;;6.87;83.74
48792;BME280;34587;48.816;9.420;2023-02-03T16:31:16;99849.97;;;6.87;84.27
48792;BME280;34587;48.816;9.420;2023-02-03T16:34:08;99846.47;;;6.85;84.60
48792;BME280;34587;48.816;9.420;2023-02-03T16:36:54;99844.78;;;6.86;84.29
48792;BME280;34587;48.816;9.420;2023-02-03T16:39:37;99839.59;;;6.84;84.19
48792;BME280;34587;48.816;9.420;2023-02-03T16:42:21;99844.75;;;6.84;84.78
48792;BME280;34587;48.816;9.420;2023-02-03T16:45:13;99850.78;;;6.86;84.74
48792;BME280;34587;48.816;9.420;2023-02-03T16:47:56;99851.63;;;6.84;85.32
48792;BME280;34587;48.816;9.420;2023-02-03T16:50:41;99839.56;;;6.81;84.81
48792;BME280;34587;48.816;9.420;2023-02-03T16:53:29;99835.28;;;6.82;84.97
48792;BME280;34587;48.816;9.420;2023-02-03T16:55:56;99837.81;;;6.80;84.86
48792;BME280;34587;48.816;9.420;2023-02-03T16:58:22;99847.34;;;6.86;84.97
48792;BME280;34587;48.816;9.420;2023-02-03T17:00:49;99860.28;;;6.87;84.71
48792;BME280;34587;48.816;9.420;2023-02-03T17:03:22;99855.13;;;6.87;84.20
48792;BME280;34587;48.816;9.420;2023-02-03T17:05:49;99862.72;;;6.81;85.07
48792;BME280;34587;48.816;9.420;2023-02-03T17:08:16;99859.38;;;6.85;84.99
48792;BME280;34587;48.816;9.420;2023-02-03T17:10:43;99860.22;;;6.84;85.09
48792;BME280;34587;48.816;9.420;2023-02-03T17:13:09;99873.09;;;6.86;84.92
48792;BME280;34587;48.816;9.420;2023-02-03T17:15:46;99863.63;;;6.83;84.50
48792;BME280;34587;48.816;9.420;2023-02-03T17:18:13;99858.50;;;6.86;84.60
48792;BME280;34587;48.816;9.420;2023-02-03T17:20:40;99841.38;;;6.88;84.44
48792;BME280;34587;48.816;9.420;2023-02-03T17:23:06;99849.13;;;6.88;84.85
48792;BME280;34587;48.816;9.420;2023-02-03T17:25:32;99851.69;;;6.88;84.89
48792;BME280;34587;48.816;9.420;2023-02-03T17:28:00;99851.75;;;6.94;84.22
48792;BME280;34587;48.816;9.420;2023-02-03T17:30:25;99856.06;;;6.95;84.04
48792;BME280;34587;48.816;9.420;2023-02-03T17:32:50;99861.25;;;6.97;84.04
48792;BME280;34587;48.816;9.420;2023-02-03T17:35:16;99862.94;;;6.93;84.37
48792;BME280;34587;48.816;9.420;2023-02-03T17:37:41;99867.19;;;6.91;84.10
48792;BME280;34587;48.816;9.420;2023-02-03T17:40:07;99869.00;;;6.99;84.12
48792;BME280;34587;48.816;9.420;2023-02-03T17:42:32;99872.47;;;7.01;84.21
48792;BME280;34587;48.816;9.420;2023-02-03T17:44:57;99885.28;;;6.96;84.20
48792;BME280;34587;48.816;9.420;2023-02-03T17:47:23;99889.56;;;6.95;84.37
48792;BME280;34587;48.816;9.420;2023-02-03T17:49:48;99877.59;;;7.01;84.38
48792;BME280;34587;48.816;9.420;2023-02-03T17:52:13;99886.19;;;7.00;84.01
48792;BME280;34587;48.816;9.420;2023-02-03T17:54:39;99891.38;;;7.01;83.88
48792;BME280;34587;48.816;9.420;2023-02-03T17:57:04;99887.06;;;7.00;83.84
48792;BME280;34587;48.816;9.420;2023-02-03T17:59:30;99902.56;;;7.02;83.90
48792;BME280;34587;48.816;9.420;2023-02-03T18:01:55;99891.34;;;7.00;83.65
48792;BME280;34587;48.816;9.420;2023-02-03T18:04:20;99893.06;;;7.01;84.19
48792;BME280;34587;48.816;9.420;2023-02-03T18:06:46;99885.41;;;7.04;83.87
48792;BME280;34587;48.816;9.420;2023-02-03T18:09:11;99888.03;;;7.10;83.28
48792;BME280;34587;48.816;9.420;2023-02-03T18:11:40;99901.72;;;7.03;83.30
48792;BME280;34587;48.816;9.420;2023-02-03T18:14:05;99900.88;;;7.05;83.55
48792;BME280;34587;48.816;9.420;2023-02-03T18:16:32;99903.50;;;7.08;83.74
48792;BME280;34587;48.816;9.420;2023-02-03T18:18:59;99903.50;;;7.07;83.22
48792;BME280;34587;48.816;9.420;2023-02-03T18:21:26;99896.63;;;7.07;83.48
48792;BME280;34587;48.816;9.420;2023-02-03T18:23:52;99903.44;;;7.04;84.71
48792;BME280;34587;48.816;9.420;2023-02-03T18:26:21;99903.50;;;7.08;84.59
48792;BME280;34587;48.816;9.420;2023-02-03T18:28:50;99900.91;;;7.07;84.07
48792;BME280;34587;48.816;9.420;2023-02-03T18:31:15;99900.06;;;7.08;83.45
48792;BME280;34587;48.816;9.420;2023-02-03T18:33:42;99905.28;;;7.12;84.40
48792;BME280;34587;48.816;9.420;2023-02-03T18:36:09;99902.63;;;7.08;85.33
48792;BME280;34587;48.816;9.420;2023-02-03T18:38:38;99898.22;;;7.01;87.34
48792;BME280;34587;48.816;9.420;2023-02-03T18:41:06;99903.34;;;6.98;87.88
48792;BME280;34587;48.816;9.420;2023-02-03T18:43:32;99902.38;;;6.91;88.63
48792;BME280;34587;48.816;9.420;2023-02-03T18:45:57;99899.78;;;6.89;88.42
48792;BME280;34587;48.816;9.420;2023-02-03T18:48:22;99898.06;;;6.90;88.16
48792;BME280;34587;48.816;9.420;2023-02-03T18:50:48;99902.38;;;6.91;87.61
48792;BME280;34587;48.816;9.420;2023-02-03T18:53:13;99892.19;;;6.97;87.17
48792;BME280;34587;48.816;9.420;2023-02-03T18:55:42;99894.72;;;6.95;87.07
48792;BME280;34587;48.816;9.420;2023-02-03T18:58:08;99905.22;;;7.08;86.23
48792;BME280;34587;48.816;9.420;2023-02-03T19:00:34;99900.91;;;7.07;86.49
48792;BME280;34587;48.816;9.420;2023-02-03T19:03:00;99896.72;;;7.15;86.08
48792;BME280;34587;48.816;9.420;2023-02-03T19:05:25;99912.22;;;7.18;85.91
48792;BME280;34587;48.816;9.420;2023-02-03T19:07:50;99907.00;;;7.13;86.10
48792;BME280;34587;48.816;9.420;2023-02-03T19:10:16;99901.91;;;7.18;85.56
48792;BME280;34587;48.816;9.420;2023-02-03T19:12:42;99915.56;;;7.11;86.27
48792;BME280;34587;48.816;9.420;2023-02-03T19:15:08;99913.09;;;7.18;86.07
48792;BME280;34587;48.816;9.420;2023-02-03T19:17:34;99908.78;;;7.16;86.17